createdAt,value
2018-07-23T00:00:45.696Z,96.94
2018-07-23T00:01:45.676Z,97.24
2018-07-23T00:02:45.662Z,97.04
2018-07-23T00:03:45.682Z,97.04
2018-07-23T00:04:45.642Z,97.62
2018-07-23T00:05:45.634Z,97.91
2018-07-23T00:06:45.619Z,98.00
2018-07-23T00:07:45.611Z,98.00
2018-07-23T00:08:45.593Z,98.19
2018-07-23T00:09:45.599Z,98.29
2018-07-23T00:10:45.575Z,98.49
2018-07-23T00:11:45.561Z,99.44
2018-07-23T00:12:45.551Z,99.21
2018-07-23T00:13:45.543Z,99.35
2018-07-23T00:14:45.548Z,99.88
2018-07-23T00:15:45.516Z,99.93
2018-07-23T00:16:45.504Z,99.93
2018-07-23T00:17:45.511Z,99.99
2018-07-23T00:18:45.482Z,99.99
2018-07-23T00:19:45.473Z,99.99
2018-07-23T00:20:45.461Z,99.99
2018-07-23T00:21:45.455Z,99.99
2018-07-23T00:22:45.437Z,99.99
2018-07-23T00:23:45.437Z,99.99
2018-07-23T00:24:45.420Z,99.99
2018-07-23T00:25:45.408Z,99.99
2018-07-23T00:26:45.391Z,99.99
2018-07-23T00:27:45.374Z,99.99
2018-07-23T00:28:45.379Z,99.99
2018-07-23T00:29:45.349Z,99.99
2018-07-23T00:30:45.338Z,99.99
2018-07-23T00:31:45.329Z,99.99
2018-07-23T00:32:45.335Z,99.99
2018-07-23T00:33:45.309Z,99.99
2018-07-23T00:34:45.297Z,99.99
2018-07-23T00:35:45.282Z,99.99
2018-07-23T00:36:45.274Z,99.99
2018-07-23T00:37:45.282Z,99.99
2018-07-23T00:38:45.249Z,99.99
2018-07-23T00:39:45.240Z,99.99
2018-07-23T00:40:45.227Z,99.99
2018-07-23T00:41:45.213Z,99.99
2018-07-23T00:42:45.215Z,99.99
2018-07-23T00:43:45.207Z,99.99
2018-07-23T00:44:45.198Z,99.99
2018-07-23T00:45:45.172Z,99.99
2018-07-23T00:46:45.169Z,99.99
2018-07-23T00:47:45.148Z,99.99
2018-07-23T00:48:45.145Z,99.99
2018-07-23T00:49:45.147Z,99.99
2018-07-23T00:50:45.108Z,99.99
2018-07-23T00:51:45.101Z,99.99
2018-07-23T00:52:45.086Z,99.99
2018-07-23T00:53:45.075Z,99.99
2018-07-23T00:54:45.066Z,99.99
2018-07-23T00:55:45.072Z,99.99
2018-07-23T00:56:45.041Z,99.99
2018-07-23T00:57:45.031Z,99.99
2018-07-23T00:58:45.021Z,99.99
2018-07-23T00:59:45.005Z,99.99
2018-07-23T01:00:45.015Z,99.99
2018-07-23T01:01:44.982Z,99.99
2018-07-23T01:02:44.973Z,99.99
2018-07-23T01:03:44.961Z,99.99
2018-07-23T01:04:44.962Z,99.99
2018-07-23T01:05:44.947Z,99.99
2018-07-23T01:06:44.922Z,99.99
2018-07-23T01:07:44.911Z,99.99
2018-07-23T01:08:44.900Z,99.99
2018-07-23T01:09:44.887Z,99.99
2018-07-23T01:10:44.891Z,99.99
2018-07-23T01:11:44.864Z,99.99
2018-07-23T01:12:44.851Z,99.99
2018-07-23T01:13:44.842Z,99.99
2018-07-23T01:14:44.849Z,99.99
2018-07-23T01:15:44.820Z,99.99
2018-07-23T01:16:44.807Z,99.99
2018-07-23T01:17:44.796Z,99.99
2018-07-23T01:18:44.779Z,99.99
2018-07-23T01:19:44.766Z,99.99
2018-07-23T01:20:44.775Z,99.99
2018-07-23T01:21:44.746Z,99.99
2018-07-23T01:22:44.735Z,99.99
2018-07-23T01:23:44.721Z,99.99
2018-07-23T01:24:44.729Z,99.99
2018-07-23T01:25:44.718Z,99.99
2018-07-23T01:26:44.692Z,99.99
2018-07-23T01:27:44.675Z,99.99
2018-07-23T01:28:44.663Z,99.99
2018-07-23T01:29:44.670Z,99.99
2018-07-23T01:30:44.641Z,99.99
2018-07-23T01:31:44.646Z,99.99
2018-07-23T01:32:44.617Z,99.99
2018-07-23T01:33:44.605Z,99.99
2018-07-23T01:34:44.614Z,99.99
2018-07-23T01:35:44.576Z,99.99
2018-07-23T01:36:44.587Z,99.99
2018-07-23T01:37:44.557Z,99.99
2018-07-23T01:38:44.546Z,99.99
2018-07-23T01:39:44.529Z,99.99
2018-07-23T01:40:44.520Z,99.99
2018-07-23T01:41:44.513Z,99.99
2018-07-23T01:42:44.515Z,99.99
2018-07-23T01:43:44.489Z,99.99
2018-07-23T01:44:44.475Z,99.99
2018-07-23T01:45:44.465Z,99.99
2018-07-23T01:46:44.449Z,99.99
2018-07-23T01:47:44.452Z,99.99
2018-07-23T01:48:44.423Z,99.99
2018-07-23T01:49:44.414Z,99.99
2018-07-23T01:50:44.420Z,99.99
2018-07-23T01:51:44.388Z,99.99
2018-07-23T01:52:44.378Z,99.99
2018-07-23T01:53:44.383Z,99.99
2018-07-23T01:54:44.362Z,99.99
2018-07-23T01:55:44.341Z,99.99
2018-07-23T01:56:44.344Z,99.99
2018-07-23T01:57:44.327Z,99.99
2018-07-23T01:58:44.303Z,99.99
2018-07-23T01:59:44.295Z,99.99
2018-07-23T02:00:44.282Z,99.99
2018-07-23T02:01:44.292Z,99.99
2018-07-23T02:02:44.261Z,99.99
2018-07-23T02:03:44.257Z,99.99
2018-07-23T02:04:44.230Z,99.99
2018-07-23T02:05:44.221Z,99.99
2018-07-23T02:06:44.206Z,99.99
2018-07-23T02:07:44.215Z,99.99
2018-07-23T02:08:44.187Z,99.99
2018-07-23T02:09:44.182Z,99.99
2018-07-23T02:10:44.160Z,99.99
2018-07-23T02:11:44.150Z,99.99
2018-07-23T02:12:44.150Z,99.99
2018-07-23T02:13:44.132Z,99.99
2018-07-23T02:14:44.117Z,99.99
2018-07-23T02:15:44.114Z,99.99
2018-07-23T02:16:44.091Z,99.99
2018-07-23T02:17:44.077Z,99.99
2018-07-23T02:18:44.068Z,99.99
2018-07-23T02:19:44.055Z,99.99
2018-07-23T02:20:44.071Z,99.99
2018-07-23T02:21:44.036Z,99.99
2018-07-23T02:22:44.039Z,99.99
2018-07-23T02:23:44.011Z,99.99
2018-07-23T02:24:43.997Z,99.99
2018-07-23T02:25:43.982Z,99.99
2018-07-23T02:26:43.971Z,99.99
2018-07-23T02:27:43.973Z,99.99
2018-07-23T02:28:43.947Z,99.99
2018-07-23T02:29:43.934Z,99.99
2018-07-23T02:30:43.922Z,99.99
2018-07-23T02:31:43.911Z,99.99
2018-07-23T02:32:43.921Z,99.99
2018-07-23T02:33:43.891Z,99.99
2018-07-23T02:34:43.875Z,99.99
2018-07-23T02:35:43.862Z,99.99
2018-07-23T02:36:43.850Z,99.99
2018-07-23T02:37:43.856Z,99.99
2018-07-23T02:38:43.824Z,99.99
2018-07-23T02:39:43.816Z,99.99
2018-07-23T02:40:43.799Z,99.99
2018-07-23T02:41:43.809Z,99.99
2018-07-23T02:42:43.790Z,99.99
2018-07-23T02:43:43.768Z,99.99
2018-07-23T02:44:43.747Z,99.99
2018-07-23T02:45:43.739Z,99.99
2018-07-23T02:46:43.724Z,99.99
2018-07-23T02:47:43.719Z,99.99
2018-07-23T02:48:43.722Z,99.99
2018-07-23T02:49:43.694Z,99.99
2018-07-23T02:50:43.678Z,99.99
2018-07-23T02:51:43.664Z,99.99
2018-07-23T02:52:43.675Z,99.99
2018-07-23T02:53:43.655Z,99.99
2018-07-23T02:54:43.631Z,99.99
2018-07-23T02:55:43.617Z,99.99
2018-07-23T02:56:43.617Z,99.99
2018-07-23T02:57:43.592Z,99.99
2018-07-23T02:58:43.584Z,99.99
2018-07-23T02:59:43.675Z,99.99
2018-07-23T03:00:43.572Z,99.99
2018-07-23T03:01:43.546Z,99.99
2018-07-23T03:02:43.530Z,99.99
2018-07-23T03:03:43.518Z,99.99
2018-07-23T03:04:43.525Z,99.99
2018-07-23T03:05:43.501Z,99.99
2018-07-23T03:06:43.479Z,99.99
2018-07-23T03:07:43.468Z,99.99
2018-07-23T03:08:43.468Z,99.99
2018-07-23T03:09:43.442Z,99.99
2018-07-23T03:10:43.448Z,99.99
2018-07-23T03:11:43.421Z,99.99
2018-07-23T03:12:43.420Z,99.99
2018-07-23T03:13:43.399Z,99.99
2018-07-23T03:14:43.383Z,99.99
2018-07-23T03:15:43.371Z,99.99
2018-07-23T03:16:43.376Z,99.99
2018-07-23T03:17:43.342Z,99.99
2018-07-23T03:18:43.334Z,99.99
2018-07-23T03:19:43.337Z,99.99
2018-07-23T03:20:43.307Z,99.99
2018-07-23T03:21:43.314Z,99.99
2018-07-23T03:22:43.285Z,99.99
2018-07-23T03:23:43.272Z,99.99
2018-07-23T03:24:43.275Z,99.99
2018-07-23T03:25:43.246Z,99.99
2018-07-23T03:26:43.233Z,99.99
2018-07-23T03:27:43.227Z,99.99
2018-07-23T03:28:43.227Z,99.99
2018-07-23T03:29:43.208Z,99.99
2018-07-23T03:30:43.184Z,99.99
2018-07-23T03:31:43.173Z,99.99
2018-07-23T03:32:43.159Z,99.99
2018-07-23T03:33:43.146Z,99.99
2018-07-23T03:34:43.152Z,99.99
2018-07-23T03:35:43.126Z,99.99
2018-07-23T03:36:43.104Z,99.99
2018-07-23T03:37:43.095Z,99.99
2018-07-23T03:38:43.085Z,99.99
2018-07-23T03:39:43.090Z,99.99
2018-07-23T03:40:43.062Z,99.99
2018-07-23T03:41:43.048Z,99.99
2018-07-23T03:42:43.032Z,99.99
2018-07-23T03:43:43.043Z,99.99
2018-07-23T03:44:43.015Z,99.99
2018-07-23T03:45:42.996Z,99.99
2018-07-23T03:46:42.986Z,99.99
2018-07-23T03:47:42.974Z,99.99
2018-07-23T03:48:42.976Z,99.99
2018-07-23T03:49:42.971Z,99.99
2018-07-23T03:50:42.935Z,99.99
2018-07-23T03:51:42.920Z,99.99
2018-07-23T03:52:42.906Z,99.99
2018-07-23T03:53:42.894Z,99.99
2018-07-23T03:54:42.887Z,99.99
2018-07-23T03:55:42.896Z,99.99
2018-07-23T03:56:42.862Z,99.99
2018-07-23T03:57:42.839Z,99.99
2018-07-23T03:58:42.836Z,99.99
2018-07-23T03:59:42.820Z,99.99
2018-07-23T04:00:42.820Z,99.99
2018-07-23T04:01:42.791Z,99.99
2018-07-23T04:02:42.776Z,99.99
2018-07-23T04:03:42.768Z,99.99
2018-07-23T04:04:42.769Z,99.99
2018-07-23T04:05:42.749Z,99.99
2018-07-23T04:06:42.746Z,99.99
2018-07-23T04:07:42.720Z,99.99
2018-07-23T04:08:42.704Z,99.99
2018-07-23T04:09:42.692Z,99.99
2018-07-23T04:10:42.728Z,99.99
2018-07-23T04:11:42.685Z,99.99
2018-07-23T04:12:42.650Z,99.99
2018-07-23T04:13:42.650Z,99.99
2018-07-23T04:14:42.631Z,99.99
2018-07-23T04:15:42.634Z,99.99
2018-07-23T04:16:42.619Z,99.99
2018-07-23T04:17:42.605Z,99.99
2018-07-23T04:18:42.574Z,99.99
2018-07-23T04:19:42.571Z,99.99
2018-07-23T04:20:42.570Z,99.99
2018-07-23T04:21:42.555Z,99.99
2018-07-23T04:22:42.535Z,99.99
2018-07-23T04:23:42.531Z,99.99
2018-07-23T04:24:42.502Z,99.99
2018-07-23T04:25:42.491Z,99.99
2018-07-23T04:26:42.483Z,99.99
2018-07-23T04:27:42.480Z,99.99
2018-07-23T04:28:42.448Z,99.99
2018-07-23T04:29:42.441Z,99.99
2018-07-23T04:30:42.427Z,99.99
2018-07-23T04:31:42.411Z,99.99
2018-07-23T04:32:42.418Z,99.99
2018-07-23T04:33:42.388Z,99.99
2018-07-23T04:34:42.379Z,99.99
2018-07-23T04:35:42.368Z,99.99
2018-07-23T04:36:42.360Z,99.99
2018-07-23T04:37:42.340Z,99.99
2018-07-23T04:38:42.347Z,99.99
2018-07-23T04:39:42.324Z,99.99
2018-07-23T04:40:42.304Z,99.99
2018-07-23T04:41:42.293Z,99.99
2018-07-23T04:42:42.277Z,99.99
2018-07-23T04:43:42.269Z,99.99
2018-07-23T04:44:42.276Z,99.99
2018-07-23T04:45:42.248Z,99.99
2018-07-23T04:46:42.229Z,99.99
2018-07-23T04:47:42.220Z,99.99
2018-07-23T04:48:42.226Z,99.99
2018-07-23T04:49:42.214Z,99.99
2018-07-23T04:50:42.243Z,99.99
2018-07-23T04:51:42.170Z,99.99
2018-07-23T04:52:42.157Z,99.99
2018-07-23T04:53:42.148Z,99.99
2018-07-23T04:54:42.152Z,99.99
2018-07-23T04:55:42.133Z,99.99
2018-07-23T04:56:42.175Z,99.99
2018-07-23T04:57:42.099Z,99.99
2018-07-23T04:58:42.100Z,99.99
2018-07-23T04:59:42.088Z,99.99
2018-07-23T05:00:42.093Z,99.99
2018-07-23T05:01:42.063Z,99.99
2018-07-23T05:02:42.039Z,99.99
2018-07-23T05:03:42.034Z,99.99
2018-07-23T05:04:42.036Z,99.99
2018-07-23T05:05:42.014Z,99.99
2018-07-23T05:06:41.990Z,99.99
2018-07-23T05:07:41.983Z,99.99
2018-07-23T05:08:41.985Z,99.99
2018-07-23T05:09:41.951Z,99.99
2018-07-23T05:10:41.957Z,99.99
2018-07-23T05:11:41.950Z,99.99
2018-07-23T05:12:41.918Z,99.99
2018-07-23T05:13:41.912Z,99.99
2018-07-23T05:14:41.894Z,99.99
2018-07-23T05:15:41.897Z,99.99
2018-07-23T05:16:41.891Z,99.99
2018-07-23T05:17:41.859Z,99.99
2018-07-23T05:18:41.854Z,99.99
2018-07-23T05:19:41.837Z,99.99
2018-07-23T05:20:41.837Z,99.99
2018-07-23T05:21:41.807Z,99.99
2018-07-23T05:22:41.798Z,99.99
2018-07-23T05:23:41.786Z,99.99
2018-07-23T05:24:41.794Z,99.88
2018-07-23T05:26:02.790Z,98.44
2018-07-23T05:26:41.751Z,97.91
2018-07-23T05:27:41.742Z,98.05
2018-07-23T05:28:41.728Z,97.42
2018-07-23T05:29:41.715Z,98.10
2018-07-23T05:30:41.705Z,99.26
2018-07-23T05:31:41.811Z,98.58
2018-07-23T05:32:41.683Z,96.56
2018-07-23T05:33:41.675Z,96.94
2018-07-23T05:34:41.659Z,97.52
2018-07-23T05:35:41.650Z,97.24
2018-07-23T05:36:41.645Z,96.37
2018-07-23T05:37:41.625Z,97.14
2018-07-23T05:38:41.611Z,96.94
2018-07-23T05:39:41.600Z,96.85
2018-07-23T05:40:41.591Z,95.64
2018-07-23T05:41:41.588Z,94.68
2018-07-23T05:42:41.566Z,94.68
2018-07-23T05:43:41.555Z,93.72
2018-07-23T05:44:41.542Z,93.52
2018-07-23T05:45:41.530Z,93.72
2018-07-23T05:46:41.542Z,93.81
2018-07-23T05:47:41.509Z,92.76
2018-07-23T05:48:41.495Z,93.04
2018-07-23T05:49:41.497Z,92.41
2018-07-23T05:50:41.471Z,92.32
2018-07-23T05:51:41.462Z,91.16
2018-07-23T05:52:41.478Z,91.55
2018-07-23T05:53:41.441Z,90.88
2018-07-23T05:54:41.433Z,91.64
2018-07-23T05:55:41.422Z,91.74
2018-07-23T05:56:41.405Z,90.54
2018-07-23T05:57:41.429Z,90.00
2018-07-23T05:58:41.385Z,91.74
2018-07-23T05:59:41.376Z,91.26
2018-07-23T06:00:41.361Z,91.16
2018-07-23T06:01:41.357Z,91.55
2018-07-23T06:02:41.338Z,90.30
2018-07-23T06:03:41.386Z,90.39
2018-07-23T06:04:41.313Z,90.48
2018-07-23T06:05:41.309Z,90.48
2018-07-23T06:06:41.308Z,90.00
2018-07-23T06:07:41.305Z,90.00
2018-07-23T06:08:41.271Z,89.14
2018-07-23T06:09:41.264Z,88.60
2018-07-23T06:10:41.254Z,88.99
2018-07-23T06:11:41.242Z,88.99
2018-07-23T06:12:41.226Z,89.09
2018-07-23T06:13:41.232Z,89.47
2018-07-23T06:14:41.206Z,89.57
2018-07-23T06:15:41.197Z,87.64
2018-07-23T06:16:41.184Z,88.70
2018-07-23T06:17:41.173Z,87.93
2018-07-23T06:18:41.159Z,87.74
2018-07-23T06:19:41.168Z,86.58
2018-07-23T06:20:41.140Z,86.39
2018-07-23T06:21:41.125Z,85.91
2018-07-23T06:22:41.114Z,87.35
2018-07-23T06:23:41.108Z,87.83
2018-07-23T06:24:41.122Z,89.76
2018-07-23T06:25:41.129Z,88.99
2018-07-23T06:26:41.075Z,87.83
2018-07-23T06:27:41.063Z,87.01
2018-07-23T06:28:41.053Z,86.52
2018-07-23T06:29:41.060Z,86.24
2018-07-23T06:30:41.039Z,84.98
2018-07-23T06:31:41.016Z,85.27
2018-07-23T06:32:41.019Z,84.69
2018-07-23T06:33:41.004Z,84.44
2018-07-23T06:34:40.987Z,83.67
2018-07-23T06:35:40.989Z,84.44
2018-07-23T06:36:40.965Z,83.96
2018-07-23T06:37:40.994Z,84.25
2018-07-23T06:38:40.945Z,82.71
2018-07-23T06:39:40.934Z,82.51
2018-07-23T06:40:40.935Z,82.61
2018-07-23T06:41:40.914Z,82.56
2018-07-23T06:42:40.899Z,81.30
2018-07-23T06:43:40.888Z,80.95
2018-07-23T06:44:40.900Z,79.66
2018-07-23T06:45:40.865Z,81.01
2018-07-23T06:46:40.919Z,81.68
2018-07-23T06:47:40.850Z,81.88
2018-07-23T06:48:40.843Z,79.47
2018-07-23T06:49:40.830Z,79.47
2018-07-23T06:50:40.830Z,79.17
2018-07-23T06:51:40.824Z,79.22
2018-07-23T06:52:40.799Z,79.17
2018-07-23T06:53:40.787Z,79.22
2018-07-23T06:54:40.775Z,78.83
2018-07-23T06:55:40.771Z,78.99
2018-07-23T06:56:40.771Z,78.69
2018-07-23T06:57:40.748Z,79.47
2018-07-23T06:58:40.971Z,78.59
2018-07-23T06:59:41.789Z,78.50
2018-07-23T07:00:40.758Z,79.08
2018-07-23T07:01:40.702Z,78.41
2018-07-23T07:02:40.718Z,76.76
2018-07-23T07:03:40.681Z,76.37
2018-07-23T07:04:40.673Z,77.25
2018-07-23T07:05:42.644Z,77.25
2018-07-23T07:06:41.770Z,76.09
2018-07-23T07:07:40.641Z,75.89
2018-07-23T07:08:40.656Z,77.05
2018-07-23T07:09:40.623Z,77.15
2018-07-23T07:10:40.615Z,76.37
2018-07-23T07:11:40.609Z,77.15
2018-07-23T07:12:40.627Z,78.11
2018-07-23T07:13:40.586Z,78.31
2018-07-23T07:14:40.590Z,78.02
2018-07-23T07:15:40.564Z,78.99
2018-07-23T07:16:40.547Z,78.69
2018-07-23T07:17:40.562Z,77.63
2018-07-23T07:18:40.539Z,76.28
2018-07-23T07:19:40.534Z,76.95
2018-07-23T07:20:40.512Z,76.37
2018-07-23T07:21:40.497Z,75.89
2018-07-23T07:22:40.499Z,76.42
2018-07-23T07:23:40.477Z,76.32
2018-07-23T07:24:40.491Z,75.16
2018-07-23T07:25:40.461Z,74.19
2018-07-23T07:26:40.451Z,73.80
2018-07-23T07:27:40.442Z,74.42
2018-07-23T07:28:40.435Z,74.42
2018-07-23T07:29:40.442Z,72.88
2018-07-23T07:30:40.416Z,73.16
2018-07-23T07:31:40.412Z,72.78
2018-07-23T07:32:40.391Z,72.78
2018-07-23T07:33:40.384Z,72.78
2018-07-23T07:34:40.401Z,73.74
2018-07-23T07:35:40.368Z,73.36
2018-07-23T07:36:40.355Z,74.13
2018-07-23T07:37:40.342Z,74.42
2018-07-23T07:38:40.335Z,73.74
2018-07-23T07:39:40.325Z,72.00
2018-07-23T07:40:40.348Z,72.78
2018-07-23T07:41:40.301Z,71.08
2018-07-23T07:42:40.301Z,71.26
2018-07-23T07:43:40.283Z,71.36
2018-07-23T07:44:40.274Z,71.26
2018-07-23T07:45:40.267Z,70.59
2018-07-23T07:46:40.279Z,70.98
2018-07-23T07:47:40.250Z,70.88
2018-07-23T07:48:40.253Z,70.30
2018-07-23T07:49:40.227Z,70.88
2018-07-23T07:50:40.246Z,72.04
2018-07-23T07:51:40.240Z,71.46
2018-07-23T07:53:06.466Z,72.14
2018-07-23T07:53:40.192Z,72.14
2018-07-23T07:54:40.186Z,72.24
2018-07-23T07:55:40.172Z,71.08
2018-07-23T07:56:40.164Z,70.30
2018-07-23T07:57:40.175Z,70.68
2018-07-23T07:58:40.142Z,72.33
2018-07-23T07:59:40.137Z,71.08
2018-07-23T08:00:40.125Z,69.92
2018-07-23T08:01:40.117Z,70.01
2018-07-23T08:02:40.145Z,69.27
2018-07-23T08:03:40.096Z,68.79
2018-07-23T08:04:40.086Z,69.17
2018-07-23T08:05:40.074Z,69.53
2018-07-23T08:06:40.076Z,71.11
2018-07-23T08:07:40.059Z,69.46
2018-07-23T08:08:40.065Z,69.37
2018-07-23T08:09:40.044Z,69.56
2018-07-23T08:10:40.050Z,69.75
2018-07-23T08:11:40.019Z,69.37
2018-07-23T08:13:01.051Z,70.14
2018-07-23T08:13:40.006Z,68.01
2018-07-23T08:14:40.020Z,68.69
2018-07-23T08:15:39.992Z,68.08
2018-07-23T08:16:40.715Z,69.04
2018-07-23T08:17:39.984Z,68.79
2018-07-23T08:18:39.982Z,70.04
2018-07-23T08:19:39.950Z,70.72
2018-07-23T08:20:39.938Z,69.89
2018-07-23T08:21:39.934Z,68.53
2018-07-23T08:22:39.944Z,68.73
2018-07-23T08:23:39.925Z,67.30
2018-07-23T08:24:39.922Z,68.56
2018-07-23T08:25:39.890Z,70.31
2018-07-23T08:26:39.905Z,68.76
2018-07-23T08:27:39.880Z,67.30
2018-07-23T08:28:39.870Z,66.34
2018-07-23T08:29:39.873Z,66.20
2018-07-23T08:30:39.852Z,67.95
2018-07-23T08:31:39.908Z,67.46
2018-07-23T08:32:39.832Z,68.15
2018-07-23T08:33:39.826Z,66.11
2018-07-23T08:34:39.835Z,67.37
2018-07-23T08:35:39.810Z,66.63
2018-07-23T08:36:39.810Z,65.95
2018-07-23T08:37:39.789Z,65.75
2018-07-23T08:38:39.787Z,65.43
2018-07-23T08:39:39.833Z,65.34
2018-07-23T08:40:39.759Z,66.14
2018-07-23T08:41:39.754Z,67.02
2018-07-23T08:42:39.746Z,65.85
2018-07-23T08:43:39.740Z,65.75
2018-07-23T08:44:39.761Z,66.53
2018-07-23T08:45:39.739Z,67.53
2018-07-23T08:46:39.717Z,65.95
2018-07-23T08:47:39.709Z,64.98
2018-07-23T08:48:39.703Z,63.95
2018-07-23T08:49:39.682Z,64.24
2018-07-23T08:50:39.691Z,63.01
2018-07-23T08:51:39.673Z,62.72
2018-07-23T08:52:39.662Z,62.85
2018-07-23T08:53:39.649Z,63.91
2018-07-23T08:54:39.646Z,64.14
2018-07-23T08:55:39.640Z,63.75
2018-07-23T08:56:39.644Z,64.43
2018-07-23T08:57:39.655Z,63.72
2018-07-23T08:58:39.614Z,63.17
2018-07-23T08:59:39.605Z,64.01
2018-07-23T09:00:39.596Z,63.46
2018-07-23T09:01:39.586Z,64.82
2018-07-23T09:02:39.609Z,63.95
2018-07-23T09:03:39.576Z,62.52
2018-07-23T09:04:39.560Z,62.32
2018-07-23T09:05:39.553Z,62.26
2018-07-23T09:06:39.549Z,62.84
2018-07-23T09:07:39.564Z,59.31
2018-07-23T09:08:39.614Z,61.32
2018-07-23T09:09:39.521Z,58.89
2018-07-23T09:10:39.519Z,58.23
2018-07-23T09:11:39.513Z,60.67
2018-07-23T09:12:39.521Z,59.72
2018-07-23T09:13:39.497Z,60.24
2018-07-23T09:14:39.487Z,57.90
2018-07-23T09:15:39.482Z,57.84
2018-07-23T09:16:39.477Z,56.60
2018-07-23T09:17:39.481Z,56.36
2018-07-23T09:18:39.458Z,56.72
2018-07-23T09:19:39.465Z,52.36
2018-07-23T09:20:39.456Z,50.87
2018-07-23T09:21:39.434Z,52.31
2018-07-23T09:22:39.430Z,54.16
2018-07-23T09:23:39.463Z,53.21
2018-07-23T09:24:39.416Z,53.21
2018-07-23T09:25:39.408Z,54.28
2018-07-23T09:26:39.403Z,54.48
2018-07-23T09:27:39.412Z,55.26
2018-07-23T09:28:39.387Z,55.26
2018-07-23T09:29:39.404Z,53.09
2018-07-23T09:30:39.375Z,52.87
2018-07-23T09:31:39.367Z,53.55
2018-07-23T09:32:39.362Z,53.91
2018-07-23T09:33:39.371Z,56.54
2018-07-23T09:34:39.367Z,54.50
2018-07-23T09:35:39.347Z,56.15
2018-07-23T09:36:39.340Z,54.69
2018-07-23T09:37:39.331Z,56.15
2018-07-23T09:38:39.328Z,57.78
2018-07-23T09:39:39.335Z,59.33
2018-07-23T09:40:39.319Z,58.92
2018-07-23T09:41:39.314Z,57.29
2018-07-23T09:42:39.304Z,58.23
2018-07-23T09:43:39.302Z,58.26
2018-07-23T09:44:39.779Z,61.38
2018-07-23T09:45:39.312Z,59.63
2018-07-23T09:46:39.279Z,59.50
2018-07-23T09:47:39.272Z,57.56
2018-07-23T09:48:39.267Z,57.97
2018-07-23T09:49:39.260Z,56.61
2018-07-23T09:50:39.268Z,57.59
2018-07-23T09:51:39.248Z,56.51
2018-07-23T09:52:39.256Z,58.36
2018-07-23T09:53:39.240Z,57.87
2018-07-23T09:54:39.232Z,58.17
2018-07-23T09:55:39.256Z,58.26
2018-07-23T09:56:39.225Z,57.97
2018-07-23T09:57:39.214Z,58.95
2018-07-23T09:58:39.218Z,57.39
2018-07-23T09:59:39.199Z,59.82
2018-07-23T10:00:39.204Z,57.39
2018-07-23T10:01:39.208Z,57.78
2018-07-23T10:02:39.186Z,55.93
2018-07-23T10:03:39.210Z,56.32
2018-07-23T10:04:39.176Z,57.87
2018-07-23T10:05:39.170Z,56.90
2018-07-23T10:06:39.179Z,57.39
2018-07-23T10:07:39.156Z,56.41
2018-07-23T10:08:39.151Z,56.71
2018-07-23T10:09:39.155Z,56.39
2018-07-23T10:11:00.179Z,58.14
2018-07-23T10:11:39.134Z,56.03
2018-07-23T10:12:39.128Z,58.07
2018-07-23T10:13:39.129Z,57.00
2018-07-23T10:14:39.123Z,56.61
2018-07-23T10:15:39.136Z,55.93
2018-07-23T10:16:39.107Z,55.93
2018-07-23T10:17:39.104Z,56.64
2018-07-23T10:18:39.094Z,54.23
2018-07-23T10:19:39.094Z,56.47
2018-07-23T10:20:39.083Z,55.40
2018-07-23T10:21:39.101Z,55.01
2018-07-23T10:22:39.068Z,55.79
2018-07-23T10:23:39.064Z,55.21
2018-07-23T10:24:39.075Z,54.43
2018-07-23T10:25:39.058Z,53.91
2018-07-23T10:26:39.063Z,56.05
2018-07-23T10:27:39.077Z,55.74
2018-07-23T10:28:39.037Z,55.27
2018-07-23T10:29:39.038Z,56.05
2018-07-23T10:30:39.034Z,55.21
2018-07-23T10:31:39.027Z,54.26
2018-07-23T10:32:39.021Z,53.58
2018-07-23T10:33:39.034Z,53.24
2018-07-23T10:34:39.009Z,53.34
2018-07-23T10:35:39.005Z,51.07
2018-07-23T10:36:39.001Z,51.68
2018-07-23T10:37:39.029Z,52.56
2018-07-23T10:38:38.993Z,51.61
2018-07-23T10:39:38.987Z,53.66
2018-07-23T10:40:38.985Z,52.78
2018-07-23T10:41:38.983Z,49.17
2018-07-23T10:42:38.978Z,49.95
2018-07-23T10:43:38.997Z,47.97
2018-07-23T10:44:38.966Z,48.28
2018-07-23T10:45:38.959Z,47.04
2018-07-23T10:46:38.950Z,48.41
2018-07-23T10:47:38.962Z,47.38
2018-07-23T10:48:38.950Z,48.12
2018-07-23T10:49:38.962Z,49.49
2018-07-23T10:50:38.943Z,50.10
2018-07-23T10:51:38.940Z,48.97
2018-07-23T10:52:38.929Z,47.36
2018-07-23T10:53:38.964Z,47.65
2018-07-23T10:54:38.956Z,49.09
2018-07-23T10:55:38.927Z,48.73
2018-07-23T10:56:38.923Z,49.46
2018-07-23T10:57:38.918Z,49.27
2018-07-23T10:58:38.915Z,50.63
2018-07-23T10:59:38.920Z,49.17
2018-07-23T11:00:38.924Z,51.29
2018-07-23T11:01:38.913Z,49.93
2018-07-23T11:02:38.910Z,50.07
2018-07-23T11:03:38.908Z,50.85
2018-07-23T11:04:38.907Z,47.46
2018-07-23T11:05:38.895Z,46.99
2018-07-23T11:06:38.927Z,47.11
2018-07-23T11:07:38.917Z,48.31
2018-07-23T11:08:38.893Z,45.03
2018-07-23T11:09:38.939Z,44.19
2018-07-23T11:10:38.882Z,41.68
2018-07-23T11:11:38.883Z,45.24
2018-07-23T11:12:38.880Z,42.24
2018-07-23T11:13:38.879Z,41.56
2018-07-23T11:14:38.893Z,38.64
2018-07-23T11:15:38.881Z,38.58
2018-07-23T11:16:59.935Z,38.66
2018-07-23T11:17:38.871Z,39.44
2018-07-23T11:18:38.883Z,39.64
2018-07-23T11:19:38.893Z,41.25
2018-07-23T11:20:38.877Z,42.19
2018-07-23T11:21:38.873Z,44.23
2018-07-23T11:22:38.880Z,46.75
2018-07-23T11:23:38.879Z,46.89
2018-07-23T11:24:45.388Z,47.35
2018-07-23T11:25:39.949Z,42.58
2018-07-23T11:26:38.890Z,44.20
2018-07-23T11:27:38.877Z,42.55
2018-07-23T11:28:38.876Z,41.19
2018-07-23T11:29:38.887Z,39.95
2018-07-23T11:30:38.877Z,40.47
2018-07-23T11:31:38.890Z,40.98
2018-07-23T11:32:38.889Z,41.90
2018-07-23T11:33:38.877Z,44.09
2018-07-23T11:34:38.903Z,45.47
2018-07-23T11:35:38.877Z,44.60
2018-07-23T11:36:38.955Z,43.08
2018-07-23T11:37:38.903Z,43.66
2018-07-23T11:38:38.875Z,43.76
2018-07-23T11:39:38.877Z,43.14
2018-07-23T11:40:38.879Z,43.32
2018-07-23T11:41:38.928Z,42.41
2018-07-23T11:42:38.896Z,44.12
2018-07-23T11:43:38.894Z,45.73
2018-07-23T11:44:38.882Z,46.98
2018-07-23T11:45:38.896Z,48.14
2018-07-23T11:46:38.881Z,47.06
2018-07-23T11:47:38.877Z,46.89
2018-07-23T11:48:38.892Z,46.20
2018-07-23T11:49:38.880Z,45.93
2018-07-23T11:50:38.888Z,46.34
2018-07-23T11:51:38.880Z,45.78
2018-07-23T11:52:38.875Z,45.37
2018-07-23T11:53:38.943Z,44.51
2018-07-23T11:54:38.875Z,45.29
2018-07-23T11:55:38.871Z,47.23
2018-07-23T11:56:38.889Z,45.62
2018-07-23T11:57:38.884Z,46.28
2018-07-23T11:58:38.871Z,47.70
2018-07-23T11:59:38.898Z,48.36
2018-07-23T12:00:38.867Z,50.10
2018-07-23T12:01:38.901Z,49.39
2018-07-23T12:02:38.872Z,50.04
2018-07-23T12:03:38.867Z,50.07
2018-07-23T12:04:38.983Z,50.02
2018-07-23T12:05:38.861Z,47.33
2018-07-23T12:06:38.857Z,47.06
2018-07-23T12:07:38.858Z,44.37
2018-07-23T12:08:38.858Z,45.64
2018-07-23T12:09:38.867Z,45.00
2018-07-23T12:10:38.856Z,42.79
2018-07-23T12:11:38.868Z,43.49
2018-07-23T12:12:38.849Z,41.27
2018-07-23T12:13:38.852Z,42.53
2018-07-23T12:14:38.872Z,39.95
2018-07-23T12:15:38.846Z,41.72
2018-07-23T12:16:38.863Z,41.84
2018-07-23T12:17:38.864Z,42.21
2018-07-23T12:18:38.850Z,41.16
2018-07-23T12:19:38.887Z,42.33
2018-07-23T12:20:38.862Z,42.04
2018-07-23T12:21:38.848Z,40.96
2018-07-23T12:22:38.850Z,41.74
2018-07-23T12:23:38.855Z,39.68
2018-07-23T12:24:38.848Z,42.10
2018-07-23T12:25:38.869Z,41.58
2018-07-23T12:26:38.859Z,42.52
2018-07-23T12:27:38.868Z,43.95
2018-07-23T12:28:38.850Z,47.45
2018-07-23T12:29:40.393Z,47.80
2018-07-23T12:30:38.878Z,48.19
2018-07-23T12:31:38.882Z,49.43
2018-07-23T12:32:38.875Z,49.82
2018-07-23T12:33:39.745Z,47.82
2018-07-23T12:34:38.848Z,46.01
2018-07-23T12:35:38.847Z,44.66
2018-07-23T12:36:38.845Z,45.34
2018-07-23T12:37:38.845Z,43.98
2018-07-23T12:38:38.864Z,47.13
2018-07-23T12:39:45.904Z,45.88
2018-07-23T12:40:38.846Z,45.70
2018-07-23T12:41:38.839Z,45.53
2018-07-23T12:42:38.846Z,44.45
2018-07-23T12:43:38.852Z,41.80
2018-07-23T12:44:38.840Z,43.18
2018-07-23T12:45:38.837Z,43.57
2018-07-23T12:46:38.836Z,41.11
2018-07-23T12:47:41.540Z,41.58
2018-07-23T12:48:48.076Z,41.88
2018-07-23T12:49:38.836Z,42.37
2018-07-23T12:50:38.839Z,43.94
2018-07-23T12:51:40.021Z,45.51
2018-07-23T12:52:43.703Z,43.18